createdAt,value
2022-10-20T00:01:10.539Z,14.00
2022-10-20T00:03:39.226Z,14.00
2022-10-20T00:06:08.631Z,14.00
2022-10-20T00:08:36.803Z,14.00
2022-10-20T00:11:07.149Z,14.00
2022-10-20T00:13:35.250Z,14.00
2022-10-20T00:16:03.339Z,13.90
2022-10-20T00:18:31.537Z,13.90
2022-10-20T00:20:59.559Z,13.90
2022-10-20T00:23:27.933Z,13.90
2022-10-20T00:26:03.397Z,13.80
2022-10-20T00:28:32.993Z,13.90
2022-10-20T00:31:01.298Z,13.80
2022-10-20T00:33:29.354Z,13.80
2022-10-20T00:36:00.006Z,13.70
2022-10-20T00:38:28.291Z,13.70
2022-10-20T00:40:56.446Z,13.60
2022-10-20T00:43:24.604Z,13.60
2022-10-20T00:45:57.104Z,13.60
2022-10-20T00:48:36.326Z,13.60
2022-10-20T00:51:04.659Z,13.60
2022-10-20T00:53:32.964Z,13.60
2022-10-20T00:56:02.324Z,13.60
2022-10-20T00:58:30.491Z,13.70
2022-10-20T01:01:00.999Z,13.70
2022-10-20T01:03:32.980Z,13.70
2022-10-20T01:06:01.057Z,13.70
2022-10-20T01:08:29.202Z,13.70
2022-10-20T01:11:07.916Z,13.70
2022-10-20T01:13:45.028Z,13.50
2022-10-20T01:16:24.219Z,13.60
2022-10-20T01:19:01.860Z,13.50
2022-10-20T01:21:57.436Z,13.50
2022-10-20T01:24:56.575Z,13.60
2022-10-20T01:27:32.482Z,13.60
2022-10-20T01:30:09.388Z,13.60
2022-10-20T01:33:02.587Z,13.60
2022-10-20T01:35:44.881Z,13.50
2022-10-20T01:38:21.853Z,13.50
2022-10-20T01:40:53.804Z,13.50
2022-10-20T01:43:25.841Z,13.40
2022-10-20T01:45:55.643Z,13.50
2022-10-20T01:48:29.858Z,13.50
2022-10-20T01:50:58.080Z,13.50
2022-10-20T01:53:26.098Z,13.50
2022-10-20T01:55:57.464Z,13.40
2022-10-20T01:58:57.905Z,13.40
2022-10-20T02:01:36.909Z,13.30
2022-10-20T02:04:08.239Z,13.30
2022-10-20T02:06:46.180Z,13.30
2022-10-20T02:09:19.626Z,13.30
2022-10-20T02:11:55.964Z,13.40
2022-10-20T02:14:25.820Z,13.40
2022-10-20T02:16:57.914Z,13.40
2022-10-20T02:19:30.565Z,13.30
2022-10-20T02:21:59.122Z,13.20
2022-10-20T02:24:31.512Z,13.30
2022-10-20T02:27:04.015Z,13.30
2022-10-20T02:29:39.997Z,13.30
2022-10-20T02:32:10.338Z,13.30
2022-10-20T02:34:41.023Z,13.40
2022-10-20T02:37:10.932Z,13.40
2022-10-20T02:39:38.990Z,13.20
2022-10-20T02:42:07.229Z,13.20
2022-10-20T02:44:36.591Z,13.20
2022-10-20T02:47:04.660Z,13.30
2022-10-20T02:49:32.670Z,13.30
2022-10-20T02:52:00.687Z,13.30
2022-10-20T02:54:28.741Z,13.20
2022-10-20T02:56:56.867Z,13.10
2022-10-20T02:59:24.887Z,13.10
2022-10-20T03:01:54.271Z,13.00
2022-10-20T03:04:22.362Z,13.10
2022-10-20T03:06:50.376Z,13.10
2022-10-20T03:09:18.385Z,13.10
2022-10-20T03:11:46.372Z,13.10
2022-10-20T03:14:14.581Z,13.20
2022-10-20T03:16:42.581Z,13.20
2022-10-20T03:19:12.164Z,13.20
2022-10-20T03:21:40.191Z,13.20
2022-10-20T03:24:08.271Z,13.10
2022-10-20T03:26:36.372Z,13.10
2022-10-20T03:29:04.730Z,13.10
2022-10-20T03:31:32.773Z,13.10
2022-10-20T03:34:00.780Z,13.10
2022-10-20T03:36:30.119Z,13.10
2022-10-20T03:38:58.132Z,13.10
2022-10-20T03:41:26.260Z,13.00
2022-10-20T03:43:54.290Z,13.10
2022-10-20T03:46:22.352Z,13.10
2022-10-20T03:48:50.367Z,13.10
2022-10-20T03:51:18.439Z,13.00
2022-10-20T03:53:48.033Z,13.00
2022-10-20T03:56:19.435Z,12.90
2022-10-20T03:58:47.593Z,12.90
2022-10-20T04:01:18.032Z,13.00
2022-10-20T04:03:46.282Z,13.10
2022-10-20T04:06:14.576Z,13.00
2022-10-20T04:08:42.725Z,13.00
2022-10-20T04:11:12.208Z,12.90
2022-10-20T04:13:40.235Z,12.90
2022-10-20T04:16:09.059Z,12.90
2022-10-20T04:18:37.085Z,12.90
2022-10-20T04:21:05.422Z,12.80
2022-10-20T04:23:33.394Z,12.80
2022-10-20T04:26:01.428Z,12.90
2022-10-20T04:28:30.747Z,12.90
2022-10-20T04:31:01.138Z,12.90
2022-10-20T04:33:29.158Z,12.90
2022-10-20T04:36:00.696Z,12.90
2022-10-20T04:38:30.878Z,13.00
2022-10-20T04:41:03.366Z,12.90
2022-10-20T04:43:34.597Z,12.90
2022-10-20T04:46:06.977Z,12.90
2022-10-20T04:48:36.907Z,12.90
2022-10-20T04:51:07.152Z,12.90
2022-10-20T04:53:35.701Z,12.90
2022-10-20T04:56:05.028Z,13.00
2022-10-20T04:58:35.872Z,12.90
2022-10-20T05:01:05.259Z,12.90
2022-10-20T05:03:33.619Z,13.00
2022-10-20T05:06:12.583Z,12.90
2022-10-20T05:08:41.036Z,12.90
2022-10-20T05:11:10.093Z,12.90
2022-10-20T05:13:39.687Z,12.80
2022-10-20T05:16:08.680Z,12.80
2022-10-20T05:18:37.208Z,12.70
2022-10-20T05:21:10.105Z,12.70
2022-10-20T05:23:39.425Z,12.80
2022-10-20T05:26:09.229Z,12.70
2022-10-20T05:28:37.253Z,12.80
2022-10-20T05:31:09.128Z,12.80
2022-10-20T05:33:37.589Z,12.80
2022-10-20T05:36:10.110Z,12.80
2022-10-20T05:38:38.213Z,12.80
2022-10-20T05:41:11.133Z,12.80
2022-10-20T05:43:40.015Z,12.80
2022-10-20T05:46:10.044Z,12.90
2022-10-20T05:48:42.807Z,12.80
2022-10-20T05:51:14.799Z,12.80
2022-10-20T05:53:44.125Z,12.90
2022-10-20T05:56:13.894Z,12.90
2022-10-20T05:58:42.792Z,12.80
2022-10-20T06:01:17.172Z,12.80
2022-10-20T06:03:48.732Z,12.90
2022-10-20T06:06:17.166Z,12.90
2022-10-20T06:08:45.314Z,12.80
2022-10-20T06:11:15.071Z,12.80
2022-10-20T06:13:45.072Z,12.70
2022-10-20T06:16:18.296Z,12.90
2022-10-20T06:18:46.314Z,12.90
2022-10-20T06:21:17.640Z,13.00
2022-10-20T06:23:46.035Z,12.90
2022-10-20T06:26:17.397Z,12.90
2022-10-20T06:28:46.826Z,12.90
2022-10-20T06:31:17.735Z,13.00
2022-10-20T06:33:46.628Z,12.90
2022-10-20T06:36:15.831Z,12.90
2022-10-20T06:38:44.517Z,13.00
2022-10-20T06:41:14.379Z,12.90
2022-10-20T06:43:42.899Z,12.90
2022-10-20T06:46:14.157Z,13.00
2022-10-20T06:48:43.714Z,13.10
2022-10-20T06:51:13.338Z,13.10
2022-10-20T06:53:45.720Z,13.10
2022-10-20T06:56:16.460Z,13.10
2022-10-20T06:58:46.475Z,13.10
2022-10-20T07:01:16.239Z,13.20
2022-10-20T07:03:47.225Z,13.10
2022-10-20T07:06:19.988Z,13.10
2022-10-20T07:08:48.557Z,13.20
2022-10-20T07:11:18.729Z,13.10
2022-10-20T07:13:47.405Z,13.20
2022-10-20T07:16:17.154Z,13.20
2022-10-20T07:18:47.386Z,13.20
2022-10-20T07:21:17.536Z,13.30
2022-10-20T07:23:46.539Z,13.30
2022-10-20T07:26:16.629Z,13.30
2022-10-20T07:28:46.719Z,13.40
2022-10-20T07:31:17.278Z,13.40
2022-10-20T07:34:00.900Z,13.50
2022-10-20T07:36:36.399Z,13.50
2022-10-20T07:39:07.005Z,13.50
2022-10-20T07:41:37.781Z,13.50
2022-10-20T07:44:06.203Z,13.60
2022-10-20T07:46:34.234Z,13.70
2022-10-20T07:49:31.415Z,13.60
2022-10-20T07:51:51.955Z,13.60
2022-10-20T07:54:19.947Z,13.70
2022-10-20T07:56:47.986Z,13.70
2022-10-20T07:59:16.129Z,13.70
2022-10-20T08:01:44.579Z,13.70
2022-10-20T08:04:14.247Z,13.70
2022-10-20T08:06:42.393Z,13.70
2022-10-20T08:09:10.406Z,13.70
2022-10-20T08:11:38.432Z,13.70
2022-10-20T08:14:06.436Z,13.70
2022-10-20T08:16:36.750Z,13.70
2022-10-20T08:19:16.325Z,13.70
2022-10-20T08:21:45.683Z,13.70
2022-10-20T08:24:13.693Z,13.70
2022-10-20T08:26:41.687Z,13.70
2022-10-20T08:29:10.530Z,13.70
2022-10-20T08:31:38.594Z,13.80
2022-10-20T08:34:08.026Z,13.80
2022-10-20T08:36:37.302Z,13.80
2022-10-20T08:39:06.772Z,13.80
2022-10-20T08:42:02.506Z,13.90
2022-10-20T08:44:28.860Z,13.80
2022-10-20T08:46:57.292Z,13.80
2022-10-20T08:49:28.792Z,13.80
2022-10-20T08:51:58.640Z,13.90
2022-10-20T08:54:28.217Z,13.90
2022-10-20T08:56:56.333Z,13.80
2022-10-20T08:59:30.182Z,13.80
2022-10-20T09:01:59.009Z,13.80
2022-10-20T09:04:34.839Z,13.90
2022-10-20T09:07:06.399Z,13.80
2022-10-20T09:09:36.625Z,13.90
2022-10-20T09:12:07.260Z,13.90
2022-10-20T09:14:38.148Z,13.80
2022-10-20T09:17:11.345Z,13.90
2022-10-20T09:19:40.181Z,13.90
2022-10-20T09:22:08.521Z,13.90
2022-10-20T09:24:38.039Z,14.00
2022-10-20T09:27:24.534Z,14.00
2022-10-20T09:29:52.570Z,13.90
2022-10-20T09:32:48.778Z,14.00
2022-10-20T09:35:21.875Z,13.90
2022-10-20T09:37:56.316Z,13.90
2022-10-20T09:40:27.664Z,14.00
2022-10-20T09:42:58.104Z,14.00
2022-10-20T09:45:29.473Z,14.10
2022-10-20T09:48:02.865Z,14.10
2022-10-20T09:50:34.256Z,14.10
2022-10-20T09:53:05.770Z,14.10
2022-10-20T09:55:37.485Z,14.10
2022-10-20T09:58:06.755Z,14.10
2022-10-20T10:00:38.175Z,14.10
2022-10-20T10:03:14.625Z,14.10
2022-10-20T10:05:42.724Z,14.10
2022-10-20T10:08:15.671Z,14.10
2022-10-20T10:10:47.240Z,14.10
2022-10-20T10:13:25.728Z,14.10
2022-10-20T10:16:02.814Z,14.10
2022-10-20T10:18:31.263Z,14.10
2022-10-20T10:21:02.016Z,14.10
2022-10-20T10:23:33.269Z,14.10
2022-10-20T10:26:03.370Z,14.10
2022-10-20T10:28:34.961Z,14.20
2022-10-20T10:31:09.535Z,14.10
2022-10-20T10:33:37.595Z,14.20
2022-10-20T10:36:12.945Z,14.20
2022-10-20T10:38:41.028Z,14.20
2022-10-20T10:41:22.781Z,14.20
2022-10-20T10:44:01.184Z,14.20
2022-10-20T10:46:37.808Z,14.20
2022-10-20T10:49:24.990Z,14.30
2022-10-20T10:52:04.555Z,14.20
2022-10-20T10:54:45.992Z,14.20
2022-10-20T10:57:22.450Z,14.30
2022-10-20T10:59:53.104Z,14.30
2022-10-20T11:03:01.032Z,14.30
2022-10-20T11:05:41.676Z,14.30
2022-10-20T11:08:20.124Z,14.30
2022-10-20T11:10:55.782Z,14.30
2022-10-20T11:13:32.619Z,14.30
2022-10-20T11:16:09.468Z,14.20
2022-10-20T11:19:18.783Z,14.30
2022-10-20T11:21:56.711Z,14.30
2022-10-20T11:24:50.954Z,14.30
2022-10-20T11:27:23.338Z,14.30
2022-10-20T11:29:57.797Z,14.30
2022-10-20T11:32:32.287Z,14.40
2022-10-20T11:35:05.783Z,14.40
2022-10-20T11:37:40.040Z,14.40
2022-10-20T11:40:19.215Z,14.50
2022-10-20T11:42:55.565Z,14.50
2022-10-20T11:45:38.955Z,14.50
2022-10-20T11:48:18.138Z,14.50
2022-10-20T11:50:54.012Z,14.50
2022-10-20T11:53:40.698Z,14.50
2022-10-20T11:56:29.142Z,14.50
2022-10-20T11:59:18.344Z,14.50
2022-10-20T12:02:19.543Z,14.50
2022-10-20T12:05:16.366Z,14.50
2022-10-20T12:08:28.811Z,14.50
2022-10-20T12:11:04.742Z,14.50
2022-10-20T12:13:40.602Z,14.50
2022-10-20T12:16:08.935Z,14.50
2022-10-20T12:18:38.891Z,14.50
2022-10-20T12:21:09.033Z,14.50
2022-10-20T12:24:07.700Z,14.60
2022-10-20T12:26:55.531Z,14.60
2022-10-20T12:29:58.433Z,14.60
2022-10-20T12:32:55.890Z,14.60
2022-10-20T12:36:05.490Z,14.60
2022-10-20T12:38:34.888Z,14.60
2022-10-20T12:41:03.826Z,14.60
2022-10-20T12:43:51.753Z,14.60
2022-10-20T12:46:23.622Z,14.60
2022-10-20T12:48:57.411Z,14.50
2022-10-20T12:51:40.695Z,14.60
2022-10-20T12:54:22.306Z,14.60
2022-10-20T12:56:51.678Z,14.70
2022-10-20T12:59:40.088Z,14.70
2022-10-20T13:02:50.128Z,14.60
2022-10-20T13:05:48.775Z,14.60
2022-10-20T13:08:32.874Z,14.60
2022-10-20T13:11:44.476Z,14.60
2022-10-20T13:14:41.141Z,14.60
2022-10-20T13:17:19.446Z,14.60
2022-10-20T13:19:51.497Z,14.60
2022-10-20T13:22:37.751Z,14.70
2022-10-20T13:25:12.706Z,14.60
2022-10-20T13:27:42.246Z,14.60
2022-10-20T13:30:11.604Z,14.60
2022-10-20T13:33:10.838Z,14.60
2022-10-20T13:35:43.717Z,14.60
2022-10-20T13:38:20.630Z,14.60
2022-10-20T13:40:58.367Z,14.70
2022-10-20T13:43:33.335Z,14.70
2022-10-20T13:46:20.045Z,14.70
2022-10-20T13:49:05.438Z,14.70
2022-10-20T13:51:44.700Z,14.70
2022-10-20T13:54:23.130Z,14.70
2022-10-20T13:56:52.021Z,14.70
2022-10-20T14:01:59.178Z,14.70
2022-10-20T14:04:29.306Z,14.70
2022-10-20T14:07:03.027Z,14.70
2022-10-20T14:09:31.411Z,14.70
2022-10-20T14:12:03.317Z,14.70
2022-10-20T14:14:33.114Z,14.70
2022-10-20T14:17:04.003Z,14.70
2022-10-20T14:19:33.525Z,14.60
2022-10-20T14:22:16.843Z,14.70
2022-10-20T14:24:47.139Z,14.70
2022-10-20T14:27:19.767Z,14.70
2022-10-20T14:29:49.997Z,14.60
2022-10-20T14:32:21.907Z,14.60
2022-10-20T14:34:58.542Z,14.60
2022-10-20T14:37:34.495Z,14.60
2022-10-20T14:40:05.072Z,14.60
2022-10-20T14:42:34.394Z,14.70
2022-10-20T14:45:04.906Z,14.70
2022-10-20T14:47:39.537Z,14.70
2022-10-20T14:50:08.762Z,14.60
2022-10-20T14:52:38.796Z,14.60
2022-10-20T14:55:35.123Z,14.60
2022-10-20T14:58:04.174Z,14.60
2022-10-20T15:00:36.355Z,14.60
2022-10-20T15:03:07.782Z,14.60
2022-10-20T15:05:41.088Z,14.60
2022-10-20T15:08:16.617Z,14.60
2022-10-20T15:10:45.474Z,14.60
2022-10-20T15:13:27.984Z,14.60
2022-10-20T15:15:59.522Z,14.60
2022-10-20T15:18:28.874Z,14.50
2022-10-20T15:20:57.602Z,14.60
2022-10-20T15:23:27.109Z,14.60
2022-10-20T15:25:59.010Z,14.60
2022-10-20T15:28:38.310Z,14.60
2022-10-20T15:31:17.090Z,14.50
2022-10-20T15:33:45.128Z,14.60
2022-10-20T15:36:15.568Z,14.60
2022-10-20T15:38:43.761Z,14.60
2022-10-20T15:41:14.905Z,14.60
2022-10-20T15:43:43.020Z,14.50
2022-10-20T15:46:13.546Z,14.50
2022-10-20T15:48:41.700Z,14.50
2022-10-20T15:51:15.126Z,14.50
2022-10-20T15:53:44.226Z,14.60
2022-10-20T15:56:12.311Z,14.60
2022-10-20T15:58:40.390Z,14.60
2022-10-20T16:01:08.504Z,14.60
2022-10-20T16:03:40.688Z,14.50
2022-10-20T16:06:08.893Z,14.50
2022-10-20T16:08:36.976Z,14.50
2022-10-20T16:11:05.248Z,14.60
2022-10-20T16:13:33.771Z,14.60
2022-10-20T16:16:01.864Z,14.60
2022-10-20T16:18:29.901Z,14.60
2022-10-20T16:21:00.402Z,14.60
2022-10-20T16:23:29.218Z,14.50
2022-10-20T16:25:57.248Z,14.50
2022-10-20T16:28:25.258Z,14.60
2022-10-20T16:31:02.881Z,14.60
2022-10-20T16:33:30.894Z,14.50
2022-10-20T16:36:03.106Z,14.50
2022-10-20T16:38:37.277Z,14.50
2022-10-20T16:41:10.261Z,14.50
2022-10-20T16:43:39.094Z,14.50
2022-10-20T16:46:07.504Z,14.40
2022-10-20T16:48:37.794Z,14.40
2022-10-20T16:51:08.676Z,14.40
2022-10-20T16:53:37.183Z,14.40
2022-10-20T16:56:05.697Z,14.40
2022-10-20T16:58:33.731Z,14.40
2022-10-20T17:01:03.973Z,14.30
2022-10-20T17:03:32.315Z,14.40
2022-10-20T17:06:02.378Z,14.40
2022-10-20T17:08:32.376Z,14.40
2022-10-20T17:11:02.327Z,14.40
2022-10-20T17:13:30.640Z,14.40
2022-10-20T17:16:03.880Z,14.40
2022-10-20T17:18:32.787Z,14.40
2022-10-20T17:21:01.052Z,14.40
2022-10-20T17:23:31.925Z,14.50
2022-10-20T17:26:03.128Z,14.50
2022-10-20T17:28:32.811Z,14.50
2022-10-20T17:31:01.690Z,14.50
2022-10-20T17:33:31.399Z,14.50
2022-10-20T17:36:00.707Z,14.50
2022-10-20T17:38:30.225Z,14.50
2022-10-20T17:41:05.793Z,14.50
2022-10-20T17:43:34.020Z,14.50
2022-10-20T17:46:03.930Z,14.50
2022-10-20T17:48:32.295Z,14.50
2022-10-20T17:51:01.784Z,14.50
2022-10-20T17:53:31.859Z,14.50
2022-10-20T17:56:02.363Z,14.50
2022-10-20T17:58:33.598Z,14.60
2022-10-20T18:01:12.290Z,14.60
2022-10-20T18:03:40.824Z,14.60
2022-10-20T18:06:14.327Z,14.50
2022-10-20T18:08:42.805Z,14.50
2022-10-20T18:11:12.099Z,14.60
2022-10-20T18:13:41.686Z,14.60
2022-10-20T18:16:11.921Z,14.60
2022-10-20T18:18:40.253Z,14.50
2022-10-20T18:21:11.226Z,14.50
2022-10-20T18:23:41.275Z,14.60
2022-10-20T18:26:11.450Z,14.60
2022-10-20T18:28:43.158Z,14.60
2022-10-20T18:31:17.838Z,14.60
2022-10-20T18:33:46.806Z,14.60
2022-10-20T18:36:16.559Z,14.60
2022-10-20T18:38:45.888Z,14.60
2022-10-20T18:41:16.029Z,14.60
2022-10-20T18:43:46.396Z,14.60
2022-10-20T18:46:15.764Z,14.60
2022-10-20T18:48:44.098Z,14.60
2022-10-20T18:51:14.241Z,14.60
2022-10-20T18:53:43.791Z,14.60
2022-10-20T18:56:14.916Z,14.60
2022-10-20T18:58:50.048Z,14.60
2022-10-20T19:01:19.708Z,14.60
2022-10-20T19:03:49.810Z,14.60
2022-10-20T19:06:21.869Z,14.60
2022-10-20T19:08:54.149Z,14.60
2022-10-20T19:11:23.853Z,14.70
2022-10-20T19:13:53.721Z,14.70
2022-10-20T19:16:24.265Z,14.70
2022-10-20T19:18:54.249Z,14.60
2022-10-20T19:21:24.342Z,14.60
2022-10-20T19:23:54.326Z,14.60
2022-10-20T19:26:24.568Z,14.60
2022-10-20T19:28:58.804Z,14.70
2022-10-20T19:31:30.758Z,14.70
2022-10-20T19:34:01.446Z,14.60
2022-10-20T19:36:30.409Z,14.70
2022-10-20T19:38:58.696Z,14.70
2022-10-20T19:41:27.333Z,14.70
2022-10-20T19:43:56.726Z,14.60
2022-10-20T19:46:24.972Z,14.60
2022-10-20T19:48:53.419Z,14.60
2022-10-20T19:51:21.574Z,14.60
2022-10-20T19:53:49.798Z,14.60
2022-10-20T19:56:18.073Z,14.60
2022-10-20T19:58:48.293Z,14.60
2022-10-20T20:01:18.411Z,14.70
2022-10-20T20:03:46.735Z,14.70
2022-10-20T20:06:17.652Z,14.70
2022-10-20T20:08:46.735Z,14.70
2022-10-20T20:11:23.595Z,14.60
2022-10-20T20:13:51.848Z,14.70
2022-10-20T20:16:22.139Z,14.70
2022-10-20T20:18:50.276Z,14.70
2022-10-20T20:21:19.149Z,14.70
2022-10-20T20:23:58.987Z,14.60
2022-10-20T20:26:28.525Z,14.70
2022-10-20T20:28:56.822Z,14.70
2022-10-20T20:31:27.759Z,14.70
2022-10-20T20:33:57.493Z,14.60
2022-10-20T20:36:27.538Z,14.60
2022-10-20T20:38:57.389Z,14.60
2022-10-20T20:41:26.685Z,14.60
2022-10-20T20:43:55.036Z,14.60
2022-10-20T20:46:24.752Z,14.60
2022-10-20T20:48:54.292Z,14.70
2022-10-20T20:51:22.524Z,14.70
2022-10-20T20:53:50.538Z,14.60
2022-10-20T20:56:21.871Z,14.60
2022-10-20T20:59:07.792Z,14.60
2022-10-20T21:01:35.813Z,14.60
2022-10-20T21:04:09.976Z,14.60
2022-10-20T21:07:00.614Z,14.60
2022-10-20T21:09:27.514Z,14.60
2022-10-20T21:11:55.553Z,14.70
2022-10-20T21:14:23.603Z,14.70
2022-10-20T21:16:51.632Z,14.70
2022-10-20T21:19:21.875Z,14.70
2022-10-20T21:21:52.192Z,14.70
2022-10-20T21:24:20.222Z,14.70
2022-10-20T21:26:48.756Z,14.70
2022-10-20T21:29:16.943Z,14.70
2022-10-20T21:31:45.097Z,14.70
2022-10-20T21:34:13.225Z,14.70
2022-10-20T21:36:42.599Z,14.70
2022-10-20T21:39:15.717Z,14.70
2022-10-20T21:41:44.753Z,14.70
2022-10-20T21:44:14.352Z,14.70
2022-10-20T21:46:44.941Z,14.70
2022-10-20T21:49:15.727Z,14.70
2022-10-20T21:51:47.575Z,14.70
2022-10-20T21:54:19.111Z,14.70
2022-10-20T21:56:47.995Z,14.60
2022-10-20T21:59:18.852Z,14.70
2022-10-20T22:01:46.993Z,14.70
2022-10-20T22:04:15.198Z,14.70
2022-10-20T22:06:44.779Z,14.80
2022-10-20T22:09:13.799Z,14.70
2022-10-20T22:11:44.414Z,14.70
2022-10-20T22:14:13.538Z,14.70
2022-10-20T22:16:43.327Z,14.70
2022-10-20T22:19:14.879Z,14.80
2022-10-20T22:21:45.850Z,14.70
2022-10-20T22:24:14.726Z,14.70
2022-10-20T22:26:43.221Z,14.70
2022-10-20T22:29:11.973Z,14.80
2022-10-20T22:31:41.238Z,14.70
2022-10-20T22:34:10.342Z,14.80
2022-10-20T22:36:39.305Z,14.70
2022-10-20T22:39:09.467Z,14.70
2022-10-20T22:41:37.753Z,14.80
2022-10-20T22:44:06.439Z,14.80
2022-10-20T22:46:34.600Z,14.80
2022-10-20T22:49:02.657Z,14.80
2022-10-20T22:51:30.753Z,14.80
2022-10-20T22:53:59.018Z,14.80
2022-10-20T22:56:28.384Z,14.80
2022-10-20T22:58:56.514Z,14.80
2022-10-20T23:01:25.171Z,14.80
2022-10-20T23:03:53.470Z,14.80
2022-10-20T23:06:24.062Z,14.80
2022-10-20T23:08:54.842Z,14.80
2022-10-20T23:11:23.060Z,14.80
2022-10-20T23:13:52.751Z,14.80
2022-10-20T23:16:21.504Z,14.80
2022-10-20T23:18:49.579Z,14.80
2022-10-20T23:21:18.207Z,14.80
2022-10-20T23:23:47.297Z,14.90
2022-10-20T23:26:15.965Z,14.90
2022-10-20T23:28:44.022Z,14.80
2022-10-20T23:31:15.083Z,14.90
2022-10-20T23:33:44.781Z,14.80
2022-10-20T23:36:14.206Z,14.90
2022-10-20T23:38:42.881Z,14.90
2022-10-20T23:41:11.497Z,14.90
2022-10-20T23:43:39.745Z,14.80
2022-10-20T23:46:08.692Z,14.90
2022-10-20T23:48:38.066Z,14.80
2022-10-20T23:51:07.428Z,14.80
2022-10-20T23:53:35.787Z,14.90
2022-10-20T23:56:03.926Z,14.90
2022-10-20T23:58:31.861Z,14.90
